Ana Sayfa
METAR-TAF:

METAR-TAF

Havaalanları :

Gökçeada Havalimanı

Gökçeada, Türkiye

Enlem: 40-12-04N, Boylam: 25-52-56E, yükseklik: 22 m

METAR: eksik

Saat: 01:10 (22:10 UTC)

Tahmin

Rapor saat 13:40 UTC de 8 saat ve 30 dakika önce yapıldı.
Ayın 20'si saat 15 UTC'den ayın 20'si saat 24 UTC'ye kadar geçerli Tahmin
Rüzgar kuzeydoğudan 13 kt
Görüş mesafesi 10 km veya daha fazla
2500 ft yükseklikte parçalı bulutlu

TAF: LTFK 201340Z 2015/2024 04013KT 9999 SCT025

4.000'den fazla havaalanı için hava durumu gözlemleri ve tahminleri (METAR ve TAF raporları).

Kullanılabilir istasyonlar harita üzerinde sarı ve kırmızı noktalarla gösterilir.

İstasyonun adını görmek için fareyi noktanın üzerinde gezdirin.

Sonrasında hava gözlem ve tahminlerini görmek için tıklayın.

Haritayı değiştirmek için: yaklaştırmak için siyah artı işaretli yeşil düğmeye ve uzaklaştırmak için de eksi işaretli düğmeye hızla tıklayın; bitişik haritalar için yeşil okları kullanın.


METAR-TAF: